sensor_id;sensor_type;location;lat;lon;timestamp;pressure;altitude;pressure_sealevel;temperature;humidity
9141;BME280;46330;50.822;7.126;2023-01-01T00:00:46;100599.41;;;14.49;55.15
9141;BME280;46330;50.822;7.126;2023-01-01T00:03:14;100597.53;;;14.52;54.33
9141;BME280;46330;50.822;7.126;2023-01-01T00:05:42;100596.22;;;14.64;53.77
9141;BME280;46330;50.822;7.126;2023-01-01T00:08:10;100595.56;;;14.58;54.03
9141;BME280;46330;50.822;7.126;2023-01-01T00:10:39;100597.44;;;14.54;54.39
9141;BME280;46330;50.822;7.126;2023-01-01T00:13:07;100601.22;;;14.72;53.16
9141;BME280;46330;50.822;7.126;2023-01-01T00:15:34;100596.41;;;14.60;53.80
9141;BME280;46330;50.822;7.126;2023-01-01T00:18:03;100605.16;;;14.60;53.88
9141;BME280;46330;50.822;7.126;2023-01-01T00:20:30;100599.13;;;14.57;53.67
9141;BME280;46330;50.822;7.126;2023-01-01T00:23:01;100610.91;;;14.46;54.23
9141;BME280;46330;50.822;7.126;2023-01-01T00:25:29;100605.22;;;14.57;53.58
9141;BME280;46330;50.822;7.126;2023-01-01T00:27:59;100607.78;;;14.60;53.42
9141;BME280;46330;50.822;7.126;2023-01-01T00:30:27;100609.56;;;14.60;53.18
9141;BME280;46330;50.822;7.126;2023-01-01T00:32:55;100605.34;;;14.54;53.49
9141;BME280;46330;50.822;7.126;2023-01-01T00:35:24;100617.59;;;14.55;53.29
9141;BME280;46330;50.822;7.126;2023-01-01T00:37:53;100626.16;;;14.62;53.39
9141;BME280;46330;50.822;7.126;2023-01-01T00:40:21;100636.78;;;14.59;53.20
9141;BME280;46330;50.822;7.126;2023-01-01T00:42:49;100631.78;;;14.51;53.34
9141;BME280;46330;50.822;7.126;2023-01-01T00:45:18;100632.88;;;14.45;53.95
9141;BME280;46330;50.822;7.126;2023-01-01T00:47:48;100624.97;;;14.45;53.62
9141;BME280;46330;50.822;7.126;2023-01-01T00:50:17;100620.47;;;14.49;53.59
9141;BME280;46330;50.822;7.126;2023-01-01T00:52:45;100619.69;;;14.45;53.48
9141;BME280;46330;50.822;7.126;2023-01-01T00:55:14;100615.31;;;14.46;53.25
9141;BME280;46330;50.822;7.126;2023-01-01T00:57:42;100614.53;;;14.42;53.57
9141;BME280;46330;50.822;7.126;2023-01-01T01:00:11;100601.34;;;14.44;53.04
9141;BME280;46330;50.822;7.126;2023-01-01T01:02:41;100594.63;;;14.35;53.51
9141;BME280;46330;50.822;7.126;2023-01-01T01:05:10;100593.81;;;14.33;53.55
9141;BME280;46330;50.822;7.126;2023-01-01T01:07:38;100602.59;;;14.34;52.87
9141;BME280;46330;50.822;7.126;2023-01-01T01:10:07;100593.72;;;14.36;53.02
9141;BME280;46330;50.822;7.126;2023-01-01T01:12:35;100605.00;;;14.40;52.36
9141;BME280;46330;50.822;7.126;2023-01-01T01:15:05;100601.56;;;14.38;52.80
9141;BME280;46330;50.822;7.126;2023-01-01T01:17:33;100608.31;;;14.45;52.39
9141;BME280;46330;50.822;7.126;2023-01-01T01:20:03;100619.91;;;14.39;52.24
9141;BME280;46330;50.822;7.126;2023-01-01T01:22:32;100626.00;;;14.41;52.02
9141;BME280;46330;50.822;7.126;2023-01-01T01:25:01;100626.72;;;14.45;52.04
9141;BME280;46330;50.822;7.126;2023-01-01T01:27:29;100640.50;;;14.53;51.54
9141;BME280;46330;50.822;7.126;2023-01-01T01:29:56;100651.47;;;14.66;51.28
9141;BME280;46330;50.822;7.126;2023-01-01T01:32:24;100648.19;;;14.59;51.79
9141;BME280;46330;50.822;7.126;2023-01-01T01:34:52;100646.44;;;14.58;51.37
9141;BME280;46330;50.822;7.126;2023-01-01T01:37:21;100649.25;;;14.53;51.64
9141;BME280;46330;50.822;7.126;2023-01-01T01:39:49;100657.31;;;14.49;52.04
9141;BME280;46330;50.822;7.126;2023-01-01T01:42:20;100658.28;;;14.46;52.19
9141;BME280;46330;50.822;7.126;2023-01-01T01:44:54;100658.31;;;14.45;51.93
9141;BME280;46330;50.822;7.126;2023-01-01T01:47:30;100653.06;;;14.45;51.72
9141;BME280;46330;50.822;7.126;2023-01-01T01:50:05;100665.38;;;14.44;51.68
9141;BME280;46330;50.822;7.126;2023-01-01T01:52:38;100665.31;;;14.46;51.23
9141;BME280;46330;50.822;7.126;2023-01-01T01:55:09;100677.72;;;14.42;51.56
9141;BME280;46330;50.822;7.126;2023-01-01T01:57:38;100679.75;;;14.34;52.08
9141;BME280;46330;50.822;7.126;2023-01-01T02:00:08;100665.56;;;14.38;51.71
9141;BME280;46330;50.822;7.126;2023-01-01T02:02:41;100680.69;;;14.32;51.88
9141;BME280;46330;50.822;7.126;2023-01-01T02:05:12;100690.47;;;14.28;52.15
9141;BME280;46330;50.822;7.126;2023-01-01T02:07:41;100685.31;;;14.25;52.02
9141;BME280;46330;50.822;7.126;2023-01-01T02:10:09;100699.41;;;14.23;52.00
9141;BME280;46330;50.822;7.126;2023-01-01T02:12:37;100696.72;;;14.24;52.35
9141;BME280;46330;50.822;7.126;2023-01-01T02:15:07;100692.63;;;14.16;52.23
9141;BME280;46330;50.822;7.126;2023-01-01T02:17:39;100688.44;;;14.10;52.61
9141;BME280;46330;50.822;7.126;2023-01-01T02:20:21;100681.19;;;14.17;52.21
9141;BME280;46330;50.822;7.126;2023-01-01T02:26:03;100677.91;;;14.10;52.16
9141;BME280;46330;50.822;7.126;2023-01-01T02:28:48;100675.88;;;14.18;51.90
9141;BME280;46330;50.822;7.126;2023-01-01T02:31:23;100681.94;;;14.20;51.56
9141;BME280;46330;50.822;7.126;2023-01-01T02:33:54;100681.19;;;14.17;52.05
9141;BME280;46330;50.822;7.126;2023-01-01T02:36:24;100683.13;;;14.12;52.25
9141;BME280;46330;50.822;7.126;2023-01-01T02:38:55;100688.34;;;14.13;52.18
9141;BME280;46330;50.822;7.126;2023-01-01T02:41:27;100679.50;;;14.14;52.06
9141;BME280;46330;50.822;7.126;2023-01-01T02:43:58;100683.91;;;14.14;51.94
9141;BME280;46330;50.822;7.126;2023-01-01T02:46:30;100679.59;;;14.13;51.65
9141;BME280;46330;50.822;7.126;2023-01-01T02:48:58;100684.19;;;14.06;52.57
9141;BME280;46330;50.822;7.126;2023-01-01T02:51:42;100685.16;;;14.04;52.61
9141;BME280;46330;50.822;7.126;2023-01-01T02:54:20;100693.75;;;14.09;52.48
9141;BME280;46330;50.822;7.126;2023-01-01T02:57:05;100678.81;;;14.09;51.96
9141;BME280;46330;50.822;7.126;2023-01-01T02:59:49;100689.34;;;14.09;52.27
9141;BME280;46330;50.822;7.126;2023-01-01T03:02:49;100691.44;;;14.26;51.08
9141;BME280;46330;50.822;7.126;2023-01-01T03:05:24;100685.44;;;14.21;51.35
9141;BME280;46330;50.822;7.126;2023-01-01T03:08:01;100685.53;;;14.18;51.84
9141;BME280;46330;50.822;7.126;2023-01-01T03:10:41;100686.63;;;14.12;52.02
9141;BME280;46330;50.822;7.126;2023-01-01T03:13:17;100687.41;;;14.14;51.73
9141;BME280;46330;50.822;7.126;2023-01-01T03:15:55;100674.31;;;14.13;52.04
9141;BME280;46330;50.822;7.126;2023-01-01T03:18:29;100676.03;;;14.14;51.67
9141;BME280;46330;50.822;7.126;2023-01-01T03:21:02;100680.25;;;14.19;52.19
9141;BME280;46330;50.822;7.126;2023-01-01T03:23:35;100671.63;;;14.14;51.88
9141;BME280;46330;50.822;7.126;2023-01-01T03:26:06;100670.03;;;14.10;52.53
9141;BME280;46330;50.822;7.126;2023-01-01T03:28:37;100668.13;;;14.14;52.33
9141;BME280;46330;50.822;7.126;2023-01-01T03:31:08;100677.84;;;14.12;53.00
9141;BME280;46330;50.822;7.126;2023-01-01T03:33:40;100677.00;;;14.11;53.05
9141;BME280;46330;50.822;7.126;2023-01-01T03:36:11;100686.53;;;14.14;52.58
9141;BME280;46330;50.822;7.126;2023-01-01T03:38:42;100701.97;;;14.24;52.83
9141;BME280;46330;50.822;7.126;2023-01-01T03:41:16;100699.66;;;14.15;53.12
9141;BME280;46330;50.822;7.126;2023-01-01T03:43:50;100699.69;;;14.14;53.30
9141;BME280;46330;50.822;7.126;2023-01-01T03:46:25;100702.44;;;14.11;53.53
9141;BME280;46330;50.822;7.126;2023-01-01T03:48:54;100703.19;;;14.14;53.79
9141;BME280;46330;50.822;7.126;2023-01-01T03:51:42;100693.69;;;14.10;53.92
9141;BME280;46330;50.822;7.126;2023-01-01T03:54:24;100698.78;;;14.15;53.61
9141;BME280;46330;50.822;7.126;2023-01-01T03:56:58;100693.53;;;14.15;54.02
9141;BME280;46330;50.822;7.126;2023-01-01T03:59:32;100698.69;;;14.18;53.93
9141;BME280;46330;50.822;7.126;2023-01-01T04:02:06;100704.16;;;14.12;54.10
9141;BME280;46330;50.822;7.126;2023-01-01T04:04:35;100699.66;;;14.15;54.15
9141;BME280;46330;50.822;7.126;2023-01-01T04:07:04;100700.63;;;14.13;54.50
9141;BME280;46330;50.822;7.126;2023-01-01T04:09:46;100691.91;;;14.11;54.35
9141;BME280;46330;50.822;7.126;2023-01-01T04:12:16;100687.50;;;14.11;54.89
9141;BME280;46330;50.822;7.126;2023-01-01T04:14:44;100695.38;;;14.13;54.97
9141;BME280;46330;50.822;7.126;2023-01-01T04:17:14;100696.34;;;14.10;55.09
9141;BME280;46330;50.822;7.126;2023-01-01T04:19:42;100701.59;;;14.10;55.17
9141;BME280;46330;50.822;7.126;2023-01-01T04:22:17;100709.59;;;14.07;55.48
9141;BME280;46330;50.822;7.126;2023-01-01T04:24:48;100696.44;;;14.07;55.58
9141;BME280;46330;50.822;7.126;2023-01-01T04:27:16;100696.53;;;14.04;55.80
9141;BME280;46330;50.822;7.126;2023-01-01T04:29:44;100704.31;;;14.07;55.87
9141;BME280;46330;50.822;7.126;2023-01-01T04:32:11;100697.25;;;14.08;55.81
9141;BME280;46330;50.822;7.126;2023-01-01T04:34:41;100705.31;;;14.03;56.12
9141;BME280;46330;50.822;7.126;2023-01-01T04:37:09;100707.06;;;14.04;56.00
9141;BME280;46330;50.822;7.126;2023-01-01T04:39:39;100706.97;;;14.07;55.78
9141;BME280;46330;50.822;7.126;2023-01-01T04:42:07;100708.81;;;14.04;56.64
9141;BME280;46330;50.822;7.126;2023-01-01T04:44:35;100709.59;;;14.07;56.30
9141;BME280;46330;50.822;7.126;2023-01-01T04:47:03;100706.84;;;14.10;56.34
9141;BME280;46330;50.822;7.126;2023-01-01T04:49:31;100716.59;;;14.07;56.55
9141;BME280;46330;50.822;7.126;2023-01-01T04:52:00;100714.13;;;14.02;56.92
9141;BME280;46330;50.822;7.126;2023-01-01T04:54:28;100715.94;;;14.00;57.23
9141;BME280;46330;50.822;7.126;2023-01-01T04:56:56;100720.38;;;13.98;57.52
9141;BME280;46330;50.822;7.126;2023-01-01T04:59:24;100717.56;;;14.04;57.05
9141;BME280;46330;50.822;7.126;2023-01-01T05:01:51;100728.09;;;14.04;56.85
9141;BME280;46330;50.822;7.126;2023-01-01T05:04:19;100726.38;;;14.03;57.50
9141;BME280;46330;50.822;7.126;2023-01-01T05:06:47;100716.84;;;13.99;57.48
9141;BME280;46330;50.822;7.126;2023-01-01T05:09:16;100718.59;;;13.98;57.60
9141;BME280;46330;50.822;7.126;2023-01-01T05:11:44;100733.59;;;13.96;57.89
9141;BME280;46330;50.822;7.126;2023-01-01T05:14:12;100722.16;;;13.97;57.92
9141;BME280;46330;50.822;7.126;2023-01-01T05:16:39;100724.84;;;13.96;58.26
9141;BME280;46330;50.822;7.126;2023-01-01T05:19:08;100712.69;;;13.92;58.26
9141;BME280;46330;50.822;7.126;2023-01-01T05:21:38;100720.72;;;13.87;58.72
9141;BME280;46330;50.822;7.126;2023-01-01T05:24:08;100721.59;;;13.88;58.71
9141;BME280;46330;50.822;7.126;2023-01-01T05:26:40;100728.63;;;13.87;58.70
9141;BME280;46330;50.822;7.126;2023-01-01T05:29:08;100732.16;;;13.86;58.99
9141;BME280;46330;50.822;7.126;2023-01-01T05:31:43;100740.03;;;13.86;59.14
9141;BME280;46330;50.822;7.126;2023-01-01T05:34:11;100740.09;;;13.85;59.34
9141;BME280;46330;50.822;7.126;2023-01-01T05:36:39;100745.25;;;13.88;59.17
9141;BME280;46330;50.822;7.126;2023-01-01T05:39:08;100755.91;;;13.83;59.48
9141;BME280;46330;50.822;7.126;2023-01-01T05:41:38;100757.56;;;13.86;59.15
9141;BME280;46330;50.822;7.126;2023-01-01T05:44:07;100752.22;;;13.89;59.37
9141;BME280;46330;50.822;7.126;2023-01-01T05:46:36;100756.69;;;13.87;59.67
9141;BME280;46330;50.822;7.126;2023-01-01T05:49:04;100748.00;;;13.85;59.60
9141;BME280;46330;50.822;7.126;2023-01-01T05:51:32;100754.13;;;13.85;59.73
9141;BME280;46330;50.822;7.126;2023-01-01T05:53:58;100765.47;;;13.86;60.03
9141;BME280;46330;50.822;7.126;2023-01-01T05:56:26;100756.69;;;13.87;59.72
9141;BME280;46330;50.822;7.126;2023-01-01T05:58:55;100775.94;;;13.87;60.03
9141;BME280;46330;50.822;7.126;2023-01-01T06:01:26;100779.53;;;13.85;60.21
9141;BME280;46330;50.822;7.126;2023-01-01T06:03:56;100773.53;;;13.80;60.58
9141;BME280;46330;50.822;7.126;2023-01-01T06:06:26;100783.19;;;13.79;60.73
9141;BME280;46330;50.822;7.126;2023-01-01T06:08:56;100790.25;;;13.79;60.66
9141;BME280;46330;50.822;7.126;2023-01-01T06:11:25;100799.72;;;13.84;60.29
9141;BME280;46330;50.822;7.126;2023-01-01T06:13:56;100804.97;;;13.84;60.75
9141;BME280;46330;50.822;7.126;2023-01-01T06:16:25;100802.47;;;13.80;60.74
9141;BME280;46330;50.822;7.126;2023-01-01T06:18:53;100803.41;;;13.77;60.94
9141;BME280;46330;50.822;7.126;2023-01-01T06:21:23;100809.44;;;13.81;61.13
9141;BME280;46330;50.822;7.126;2023-01-01T06:23:54;100804.22;;;13.79;61.22
9141;BME280;46330;50.822;7.126;2023-01-01T06:26:23;100798.13;;;13.79;61.21
9141;BME280;46330;50.822;7.126;2023-01-01T06:28:51;100806.84;;;13.79;61.68
9141;BME280;46330;50.822;7.126;2023-01-01T06:31:21;100810.44;;;13.77;61.59
9141;BME280;46330;50.822;7.126;2023-01-01T06:33:50;100806.03;;;13.77;61.20
9141;BME280;46330;50.822;7.126;2023-01-01T06:36:19;100822.69;;;13.78;61.16
9141;BME280;46330;50.822;7.126;2023-01-01T06:38:49;100827.06;;;13.77;61.47
9141;BME280;46330;50.822;7.126;2023-01-01T06:41:19;100829.69;;;13.79;61.64
9141;BME280;46330;50.822;7.126;2023-01-01T06:43:47;100825.25;;;13.79;61.76
9141;BME280;46330;50.822;7.126;2023-01-01T06:46:17;100826.13;;;13.80;61.54
9141;BME280;46330;50.822;7.126;2023-01-01T06:48:48;100836.69;;;13.78;61.83
9141;BME280;46330;50.822;7.126;2023-01-01T06:51:17;100836.72;;;13.77;61.76
9141;BME280;46330;50.822;7.126;2023-01-01T06:53:46;100835.88;;;13.76;61.41
9141;BME280;46330;50.822;7.126;2023-01-01T06:56:14;100840.22;;;13.77;62.16
9141;BME280;46330;50.822;7.126;2023-01-01T06:58:42;100840.28;;;13.76;62.13
9141;BME280;46330;50.822;7.126;2023-01-01T07:01:12;100841.13;;;13.76;62.14
9141;BME280;46330;50.822;7.126;2023-01-01T07:03:42;100844.63;;;13.77;62.52
9141;BME280;46330;50.822;7.126;2023-01-01T07:06:12;100847.31;;;13.75;62.52
9141;BME280;46330;50.822;7.126;2023-01-01T07:08:40;100843.91;;;13.72;62.67
9141;BME280;46330;50.822;7.126;2023-01-01T07:11:08;100849.25;;;13.69;62.37
9141;BME280;46330;50.822;7.126;2023-01-01T07:13:35;100853.56;;;13.71;62.87
9141;BME280;46330;50.822;7.126;2023-01-01T07:16:04;100854.44;;;13.70;62.84
9141;BME280;46330;50.822;7.126;2023-01-01T07:18:39;100851.91;;;13.67;63.11
9141;BME280;46330;50.822;7.126;2023-01-01T07:21:25;100855.31;;;13.71;63.02
9141;BME280;46330;50.822;7.126;2023-01-01T07:23:55;100854.41;;;13.72;63.01
9141;BME280;46330;50.822;7.126;2023-01-01T07:26:24;100870.22;;;13.70;62.90
9141;BME280;46330;50.822;7.126;2023-01-01T07:28:52;100861.53;;;13.68;63.31
9141;BME280;46330;50.822;7.126;2023-01-01T07:31:22;100876.41;;;13.69;62.98
9141;BME280;46330;50.822;7.126;2023-01-01T07:33:50;100879.03;;;13.69;63.36
9141;BME280;46330;50.822;7.126;2023-01-01T07:36:18;100877.22;;;13.71;63.04
9141;BME280;46330;50.822;7.126;2023-01-01T07:38:47;100873.03;;;13.64;63.43
9141;BME280;46330;50.822;7.126;2023-01-01T07:41:15;100889.66;;;13.65;63.52
9141;BME280;46330;50.822;7.126;2023-01-01T07:43:42;100894.81;;;13.68;63.36
9141;BME280;46330;50.822;7.126;2023-01-01T07:46:11;100901.03;;;13.65;64.02
9141;BME280;46330;50.822;7.126;2023-01-01T07:48:41;100902.81;;;13.65;63.90
9141;BME280;46330;50.822;7.126;2023-01-01T07:51:09;100907.28;;;13.61;63.83
9141;BME280;46330;50.822;7.126;2023-01-01T07:53:37;100915.94;;;13.65;63.88
9141;BME280;46330;50.822;7.126;2023-01-01T07:56:07;100933.38;;;13.69;64.13
9141;BME280;46330;50.822;7.126;2023-01-01T07:58:37;100925.41;;;13.70;63.94
9141;BME280;46330;50.822;7.126;2023-01-01T08:01:08;100931.69;;;13.66;64.27
9141;BME280;46330;50.822;7.126;2023-01-01T08:03:36;100935.19;;;13.67;64.06
9141;BME280;46330;50.822;7.126;2023-01-01T08:06:06;100939.44;;;13.71;64.34
9141;BME280;46330;50.822;7.126;2023-01-01T08:08:34;100942.16;;;13.68;64.58
9141;BME280;46330;50.822;7.126;2023-01-01T08:11:03;100929.84;;;13.70;64.61
9141;BME280;46330;50.822;7.126;2023-01-01T08:13:32;100940.28;;;13.73;64.20
9141;BME280;46330;50.822;7.126;2023-01-01T08:16:00;100940.13;;;13.77;64.39
9141;BME280;46330;50.822;7.126;2023-01-01T08:18:28;100952.38;;;13.78;64.50
9141;BME280;46330;50.822;7.126;2023-01-01T08:20:56;100938.28;;;13.81;64.53
9141;BME280;46330;50.822;7.126;2023-01-01T08:23:24;100942.69;;;13.80;64.37
9141;BME280;46330;50.822;7.126;2023-01-01T08:25:51;100932.97;;;13.82;64.46
9141;BME280;46330;50.822;7.126;2023-01-01T08:28:19;100935.75;;;13.78;64.82
9141;BME280;46330;50.822;7.126;2023-01-01T08:30:48;100954.09;;;13.79;64.61
9141;BME280;46330;50.822;7.126;2023-01-01T08:33:16;100955.00;;;13.78;64.98
9141;BME280;46330;50.822;7.126;2023-01-01T08:35:44;100961.09;;;13.80;65.20
9141;BME280;46330;50.822;7.126;2023-01-01T08:38:19;100974.16;;;13.83;65.37
9141;BME280;46330;50.822;7.126;2023-01-01T08:40:47;100959.22;;;13.85;65.19
9141;BME280;46330;50.822;7.126;2023-01-01T08:43:15;100972.47;;;13.81;65.81
9141;BME280;46330;50.822;7.126;2023-01-01T08:45:43;100976.91;;;13.79;66.16
9141;BME280;46330;50.822;7.126;2023-01-01T08:48:13;100977.81;;;13.78;66.37
9141;BME280;46330;50.822;7.126;2023-01-01T08:50:40;100982.19;;;13.77;66.50
9141;BME280;46330;50.822;7.126;2023-01-01T08:53:08;100979.56;;;13.77;67.05
9141;BME280;46330;50.822;7.126;2023-01-01T08:55:36;100969.03;;;13.79;67.38
9141;BME280;46330;50.822;7.126;2023-01-01T08:58:04;100956.69;;;13.81;67.34
9141;BME280;46330;50.822;7.126;2023-01-01T09:00:33;100954.09;;;13.79;67.91
9141;BME280;46330;50.822;7.126;2023-01-01T09:03:01;100955.72;;;13.85;67.57
9141;BME280;46330;50.822;7.126;2023-01-01T09:05:30;100957.41;;;13.86;68.15
9141;BME280;46330;50.822;7.126;2023-01-01T09:07:58;100966.16;;;13.86;68.18
9141;BME280;46330;50.822;7.126;2023-01-01T09:10:26;100975.97;;;13.81;68.47
9141;BME280;46330;50.822;7.126;2023-01-01T09:12:53;100978.38;;;13.89;68.30
9141;BME280;46330;50.822;7.126;2023-01-01T09:15:22;100981.00;;;13.89;68.52
9141;BME280;46330;50.822;7.126;2023-01-01T09:17:49;100978.50;;;13.84;68.41
9141;BME280;46330;50.822;7.126;2023-01-01T09:20:17;100977.53;;;13.88;68.54
9141;BME280;46330;50.822;7.126;2023-01-01T09:22:46;100996.81;;;13.87;68.10
9141;BME280;46330;50.822;7.126;2023-01-01T09:25:14;100990.75;;;13.85;68.78
9141;BME280;46330;50.822;7.126;2023-01-01T09:27:42;100996.91;;;13.84;69.00
9141;BME280;46330;50.822;7.126;2023-01-01T09:30:11;101011.72;;;13.88;68.83
9141;BME280;46330;50.822;7.126;2023-01-01T09:32:39;101008.25;;;13.86;68.59
9141;BME280;46330;50.822;7.126;2023-01-01T09:35:08;101014.44;;;13.84;69.04
9141;BME280;46330;50.822;7.126;2023-01-01T09:37:36;101031.03;;;13.86;69.04
9141;BME280;46330;50.822;7.126;2023-01-01T09:40:06;101036.44;;;13.81;68.98
9141;BME280;46330;50.822;7.126;2023-01-01T09:42:38;101048.72;;;13.81;69.09
9141;BME280;46330;50.822;7.126;2023-01-01T09:45:19;101044.41;;;13.78;69.64
9141;BME280;46330;50.822;7.126;2023-01-01T09:47:50;101050.53;;;13.79;69.08
9141;BME280;46330;50.822;7.126;2023-01-01T09:50:22;101052.22;;;13.81;69.40
9141;BME280;46330;50.822;7.126;2023-01-01T09:52:53;101054.06;;;13.78;69.58
9141;BME280;46330;50.822;7.126;2023-01-01T09:55:27;101050.53;;;13.79;69.35
9141;BME280;46330;50.822;7.126;2023-01-01T09:57:56;101051.28;;;13.82;69.09
9141;BME280;46330;50.822;7.126;2023-01-01T10:00:24;101053.09;;;13.82;69.32
9141;BME280;46330;50.822;7.126;2023-01-01T10:03:01;101052.13;;;13.84;68.94
9141;BME280;46330;50.822;7.126;2023-01-01T10:05:38;101054.59;;;13.90;68.91
9141;BME280;46330;50.822;7.126;2023-01-01T10:08:09;101050.22;;;13.89;68.82
9141;BME280;46330;50.822;7.126;2023-01-01T10:10:56;101055.41;;;13.92;68.54
9141;BME280;46330;50.822;7.126;2023-01-01T10:13:29;101049.25;;;13.93;68.91
9141;BME280;46330;50.822;7.126;2023-01-01T10:16:02;101059.88;;;13.90;69.11
9141;BME280;46330;50.822;7.126;2023-01-01T10:18:33;101063.28;;;13.94;69.19
9141;BME280;46330;50.822;7.126;2023-01-01T10:21:07;101055.47;;;13.91;69.37
9141;BME280;46330;50.822;7.126;2023-01-01T10:23:41;101060.66;;;13.92;69.48
9141;BME280;46330;50.822;7.126;2023-01-01T10:26:15;101059.81;;;13.92;69.00
9141;BME280;46330;50.822;7.126;2023-01-01T10:28:50;101060.56;;;13.97;69.47
9141;BME280;46330;50.822;7.126;2023-01-01T10:31:29;101055.34;;;13.95;69.24
9141;BME280;46330;50.822;7.126;2023-01-01T10:34:13;101058.59;;;14.05;69.38
9141;BME280;46330;50.822;7.126;2023-01-01T10:36:42;101057.94;;;13.97;68.92
9141;BME280;46330;50.822;7.126;2023-01-01T10:39:13;101056.19;;;13.96;69.14
9141;BME280;46330;50.822;7.126;2023-01-01T10:41:44;101053.53;;;13.97;68.92
9141;BME280;46330;50.822;7.126;2023-01-01T10:44:14;101049.09;;;13.99;69.18
9141;BME280;46330;50.822;7.126;2023-01-01T10:46:45;101045.69;;;13.96;69.53
9141;BME280;46330;50.822;7.126;2023-01-01T10:49:14;101056.19;;;13.96;69.10
9141;BME280;46330;50.822;7.126;2023-01-01T10:51:43;101054.47;;;13.95;69.28
9141;BME280;46330;50.822;7.126;2023-01-01T10:54:24;101037.69;;;14.00;69.24
9141;BME280;46330;50.822;7.126;2023-01-01T10:56:58;101027.19;;;13.99;68.54
9141;BME280;46330;50.822;7.126;2023-01-01T10:59:33;101036.84;;;13.98;68.64
9141;BME280;46330;50.822;7.126;2023-01-01T11:02:17;101029.88;;;13.97;68.85
9141;BME280;46330;50.822;7.126;2023-01-01T11:04:46;101010.59;;;13.97;69.06
9141;BME280;46330;50.822;7.126;2023-01-01T11:07:24;101005.34;;;13.97;68.81
9141;BME280;46330;50.822;7.126;2023-01-01T11:09:57;100991.22;;;13.99;68.96
9141;BME280;46330;50.822;7.126;2023-01-01T11:12:32;100986.94;;;13.97;68.72
9141;BME280;46330;50.822;7.126;2023-01-01T11:15:23;100993.97;;;13.95;68.56
9141;BME280;46330;50.822;7.126;2023-01-01T11:18:02;100999.16;;;13.98;68.55
9141;BME280;46330;50.822;7.126;2023-01-01T11:20:32;101006.31;;;13.93;68.83
9141;BME280;46330;50.822;7.126;2023-01-01T11:23:17;101010.63;;;13.95;68.78
9141;BME280;46330;50.822;7.126;2023-01-01T11:26:05;101025.44;;;13.99;68.53
9141;BME280;46330;50.822;7.126;2023-01-01T11:28:35;101033.34;;;13.98;68.52
9141;BME280;46330;50.822;7.126;2023-01-01T11:31:12;101036.84;;;13.98;68.35
9141;BME280;46330;50.822;7.126;2023-01-01T11:33:44;101040.41;;;13.97;68.34
9141;BME280;46330;50.822;7.126;2023-01-01T11:36:19;101047.28;;;14.01;67.58
9141;BME280;46330;50.822;7.126;2023-01-01T11:38:48;101056.94;;;14.01;68.17
9141;BME280;46330;50.822;7.126;2023-01-01T11:41:17;101055.38;;;13.94;68.42
9141;BME280;46330;50.822;7.126;2023-01-01T11:43:46;101061.59;;;13.91;68.51
9141;BME280;46330;50.822;7.126;2023-01-01T11:46:22;101061.59;;;13.91;68.66
9141;BME280;46330;50.822;7.126;2023-01-01T11:48:52;101052.00;;;13.89;68.54
9141;BME280;46330;50.822;7.126;2023-01-01T11:51:29;101053.78;;;13.88;68.22
9141;BME280;46330;50.822;7.126;2023-01-01T11:54:19;101062.41;;;13.93;68.26
9141;BME280;46330;50.822;7.126;2023-01-01T11:56:52;101059.88;;;13.89;68.74
9141;BME280;46330;50.822;7.126;2023-01-01T11:59:25;101055.47;;;13.91;68.48
9141;BME280;46330;50.822;7.126;2023-01-01T12:01:57;101054.63;;;13.89;68.59
9141;BME280;46330;50.822;7.126;2023-01-01T12:04:29;101042.31;;;13.91;68.40
9141;BME280;46330;50.822;7.126;2023-01-01T12:07:03;101045.75;;;13.94;68.63
9141;BME280;46330;50.822;7.126;2023-01-01T12:09:36;101048.31;;;13.96;68.70
9141;BME280;46330;50.822;7.126;2023-01-01T12:12:08;101038.75;;;13.92;68.42
9141;BME280;46330;50.822;7.126;2023-01-01T12:14:44;101030.03;;;13.91;68.01
9141;BME280;46330;50.822;7.126;2023-01-01T12:17:19;101037.94;;;13.91;67.66
9141;BME280;46330;50.822;7.126;2023-01-01T12:19:55;101026.38;;;13.97;68.31
9141;BME280;46330;50.822;7.126;2023-01-01T12:22:25;101020.19;;;13.98;67.45
9141;BME280;46330;50.822;7.126;2023-01-01T12:24:53;101022.72;;;14.01;67.73
9141;BME280;46330;50.822;7.126;2023-01-01T12:27:32;101017.56;;;13.98;67.25
9141;BME280;46330;50.822;7.126;2023-01-01T12:30:18;101008.69;;;14.02;67.37
9141;BME280;46330;50.822;7.126;2023-01-01T12:33:02;101010.50;;;14.00;66.89
9141;BME280;46330;50.822;7.126;2023-01-01T12:35:43;101005.09;;;14.05;66.79
9141;BME280;46330;50.822;7.126;2023-01-01T12:38:24;101001.41;;;14.12;66.98
9141;BME280;46330;50.822;7.126;2023-01-01T12:41:05;100998.84;;;14.10;67.00
9141;BME280;46330;50.822;7.126;2023-01-01T12:43:42;101002.28;;;14.12;67.23
9141;BME280;46330;50.822;7.126;2023-01-01T12:46:30;100997.97;;;14.10;67.36
9141;BME280;46330;50.822;7.126;2023-01-01T12:49:26;100996.22;;;14.10;65.57
9141;BME280;46330;50.822;7.126;2023-01-01T12:52:03;100994.50;;;14.08;64.91
9141;BME280;46330;50.822;7.126;2023-01-01T12:55:00;100988.25;;;14.12;65.07
9141;BME280;46330;50.822;7.126;2023-01-01T12:57:35;100988.13;;;14.16;65.40
9141;BME280;46330;50.822;7.126;2023-01-01T13:00:12;100990.88;;;14.12;64.39
9141;BME280;46330;50.822;7.126;2023-01-01T13:02:47;100989.13;;;14.12;65.74
9141;BME280;46330;50.822;7.126;2023-01-01T13:05:19;100988.31;;;14.10;65.57
9141;BME280;46330;50.822;7.126;2023-01-01T13:07:52;100997.97;;;14.10;66.10
9141;BME280;46330;50.822;7.126;2023-01-01T13:10:25;101004.81;;;14.15;66.18
9141;BME280;46330;50.822;7.126;2023-01-01T13:12:55;101003.19;;;14.11;66.80
9141;BME280;46330;50.822;7.126;2023-01-01T13:15:44;101003.22;;;14.10;66.87
9141;BME280;46330;50.822;7.126;2023-01-01T13:18:33;101000.59;;;14.10;68.19
9141;BME280;46330;50.822;7.126;2023-01-01T13:21:17;101006.06;;;14.02;66.61
9141;BME280;46330;50.822;7.126;2023-01-01T13:23:50;101002.41;;;14.08;66.78
9141;BME280;46330;50.822;7.126;2023-01-01T13:26:39;100999.81;;;14.06;65.71